Time;durP1;ratioP1;P1;durP2;ratioP2;P2;SDS_P1;SDS_P2;PMS_P1;PMS_P2;Temp;Humidity;BMP_temperature;BMP_pressure;BME280_temperature;BME280_humidity;BME280_pressure;Samples;Min_cycle;Max_cycle;Signal;HPM_P1;HPM_P2
2022/08/14 00:02:29;;;;;;;8.37;4.83;;;;;;;21.43;63.06;101027.25;5212571;28;20031;-68
2022/08/14 00:05:01;;;;;;;8.60;4.90;;;;;;;21.43;63.36;101019.25;5209382;28;20060;-68
2022/08/14 00:07:34;;;;;;;10.10;4.60;;;;;;;21.41;62.94;101018.66;5207769;28;20022;-68
2022/08/14 00:10:08;;;;;;;7.30;4.82;;;;;;;21.28;63.43;101026.53;5209905;28;20403;-69
2022/08/14 00:12:44;;;;;;;6.38;4.68;;;;;;;21.31;64.11;101018.97;5210773;28;20560;-68
2022/08/14 00:15:33;;;;;;;8.73;5.45;;;;;;;21.35;63.21;101006.91;5212731;28;20116;-69
2022/08/14 00:18:06;;;;;;;7.80;4.45;;;;;;;21.07;65.62;101014.94;5209655;28;20575;-68
2022/08/14 00:20:40;;;;;;;13.07;6.28;;;;;;;21.08;65.97;101011.25;5212705;28;20026;-68
2022/08/14 00:23:14;;;;;;;8.40;5.88;;;;;;;21.02;65.16;101005.84;5207515;28;20209;-68
2022/08/14 00:25:50;;;;;;;8.98;5.90;;;;;;;21.01;66.11;101005.03;5211540;28;20030;-68
2022/08/14 00:28:25;;;;;;;6.60;5.80;;;;;;;20.89;67.41;101009.25;5211553;28;20480;-68
2022/08/14 00:30:58;;;;;;;9.35;6.10;;;;;;;20.92;66.90;101000.06;5210538;28;20042;-68
2022/08/14 00:33:30;;;;;;;8.85;5.28;;;;;;;20.91;65.37;100991.25;5209956;28;20018;-68
2022/08/14 00:36:02;;;;;;;7.47;5.57;;;;;;;20.98;65.00;100993.94;5211843;28;20030;-69
2022/08/14 00:38:34;;;;;;;9.40;6.07;;;;;;;20.98;65.33;100983.28;5209734;28;20036;-67
2022/08/14 00:41:07;;;;;;;6.73;6.00;;;;;;;20.96;64.55;100980.84;5207231;28;20026;-70
2022/08/14 00:43:38;;;;;;;7.45;6.13;;;;;;;20.92;64.59;100974.25;5211378;28;20092;-69
2022/08/14 00:46:10;;;;;;;8.43;5.93;;;;;;;20.96;64.22;100975.50;5208365;28;20473;-68
2022/08/14 00:48:41;;;;;;;7.80;6.10;;;;;;;20.91;64.44;100977.94;5208826;28;20076;-68
2022/08/14 00:51:12;;;;;;;8.27;5.70;;;;;;;20.77;64.23;100955.72;5209420;28;20049;-69
2022/08/14 00:53:44;;;;;;;7.47;6.47;;;;;;;20.92;63.80;100976.91;5210238;28;20026;-68
2022/08/14 00:56:17;;;;;;;6.13;5.53;;;;;;;20.86;64.15;100969.69;5211018;28;20021;-68
2022/08/14 00:58:48;;;;;;;7.45;6.15;;;;;;;20.82;64.52;100974.59;5212029;28;20045;-71
2022/08/14 01:01:19;;;;;;;8.43;6.40;;;;;;;20.76;65.14;100955.91;5209378;28;20025;-68
2022/08/14 01:03:52;;;;;;;11.07;6.80;;;;;;;20.74;65.43;100960.59;5211691;28;20042;-68
2022/08/14 01:06:25;;;;;;;7.45;6.47;;;;;;;20.86;64.24;100953.72;5209220;28;20104;-69
2022/08/14 01:08:56;;;;;;;;;;;;;;;21.49;59.74;100946.50;5208867;28;20105;-68
2022/08/14 01:11:28;;;;;;;10.38;6.40;;;;;;;20.80;65.20;100951.84;5209498;28;20331;-68
2022/08/14 01:14:00;;;;;;;8.13;6.27;;;;;;;20.67;65.12;100941.09;5207826;28;20025;-70
2022/08/14 01:16:32;;;;;;;8.80;6.55;;;;;;;20.70;65.39;100944.19;5210635;28;20029;-68
2022/08/14 01:21:53;;;;;;;7.28;6.32;;;;;;;20.60;64.61;100944.53;5207361;28;20037;-71
2022/08/14 01:24:25;;;;;;;7.67;6.23;;;;;;;20.58;64.51;100941.25;5208944;28;20425;-68
2022/08/14 01:26:58;;;;;;;7.93;7.17;;;;;;;20.78;63.96;100943.22;5209833;28;20080;-68
2022/08/14 01:29:36;;;;;;;7.43;6.22;;;;;;;20.52;65.08;100938.53;5209589;28;20032;-68
2022/08/14 01:32:08;;;;;;;6.97;5.72;;;;;;;20.56;64.01;100939.78;5203654;28;20216;-68
2022/08/14 01:34:40;;;;;;;7.43;5.97;;;;;;;20.54;65.06;100941.84;5209729;28;20028;-69
2022/08/14 01:37:11;;;;;;;8.33;6.90;;;;;;;20.51;64.46;100943.03;5208030;28;20528;-67
2022/08/14 01:39:43;;;;;;;8.93;6.50;;;;;;;20.48;65.89;100945.22;5210104;28;20049;-68
2022/08/14 01:42:14;;;;;;;8.97;6.47;;;;;;;20.52;65.55;100946.50;5208691;28;20030;-68
2022/08/14 01:44:50;;;;;;;7.95;6.10;;;;;;;20.43;66.35;100948.47;5210260;28;20903;-70
2022/08/14 01:47:21;;;;;;;8.07;6.25;;;;;;;20.36;67.33;100948.41;5207347;28;20022;-71
2022/08/14 01:49:53;;;;;;;7.10;6.40;;;;;;;20.31;66.60;100950.81;5205863;28;20028;-68
2022/08/14 01:52:24;;;;;;;6.80;6.10;;;;;;;20.17;67.34;100951.72;5209913;28;20328;-68
2022/08/14 01:54:56;;;;;;;9.60;6.60;;;;;;;20.13;68.68;100951.28;5205071;28;20070;-67
2022/08/14 01:57:27;;;;;;;7.20;6.17;;;;;;;20.06;69.44;100941.59;5210965;28;20029;-68
2022/08/14 01:59:59;;;;;;;8.97;6.70;;;;;;;20.00;70.44;100937.00;5209132;28;20029;-69
2022/08/14 02:02:30;;;;;;;8.07;6.33;;;;;;;20.02;69.66;100933.16;5206119;28;20425;-67
2022/08/14 02:05:01;;;;;;;7.83;6.63;;;;;;;19.95;71.08;100934.09;5208073;28;20061;-68
2022/08/14 02:07:35;;;;;;;8.15;6.18;;;;;;;19.92;70.77;100933.47;5208040;28;20117;-67
2022/08/14 02:10:07;;;;;;;8.10;6.22;;;;;;;19.88;71.36;100932.19;5208221;28;20032;-68
2022/08/14 02:12:39;;;;;;;6.88;6.28;;;;;;;19.86;72.22;100928.91;5206002;28;20033;-68
2022/08/14 02:15:11;;;;;;;7.73;5.87;;;;;;;19.82;70.98;100927.66;5207733;28;20034;-68
2022/08/14 02:17:42;;;;;;;10.80;6.27;;;;;;;19.81;71.25;100927.81;5208523;28;20026;-69
2022/08/14 02:20:14;;;;;;;7.97;7.17;;;;;;;19.68;72.40;100926.66;5205618;28;20072;-68
2022/08/14 02:22:45;;;;;;;9.43;6.77;;;;;;;19.65;72.72;100924.38;5208763;28;20022;-69
2022/08/14 02:25:17;;;;;;;9.07;6.17;;;;;;;19.56;73.67;100914.84;5209283;28;20025;-68
2022/08/14 02:27:48;;;;;;;9.67;7.33;;;;;;;19.66;72.07;100926.06;5209614;28;20026;-69
2022/08/14 02:30:19;;;;;;;8.87;6.67;;;;;;;19.58;72.14;100925.28;5206284;28;20026;-68
2022/08/14 02:32:51;;;;;;;9.00;6.63;;;;;;;19.55;73.44;100923.03;5209955;28;20098;-71
2022/08/14 02:35:26;;;;;;;11.20;6.72;;;;;;;19.50;73.63;100920.09;5204799;28;20073;-68
2022/08/14 02:37:57;;;;;;;8.05;7.30;;;;;;;19.36;76.46;100919.13;5204902;28;20037;-68
2022/08/14 02:40:31;;;;;;;7.17;6.47;;;;;;;19.39;75.53;100913.41;5209061;28;20022;-68
2022/08/14 02:43:04;;;;;;;6.95;6.25;;;;;;;19.26;78.72;100908.78;5207183;28;20404;-71
2022/08/14 02:45:35;;;;;;;8.85;6.32;;;;;;;19.23;78.63;100914.44;5203350;28;20025;-68
2022/08/14 02:48:08;;;;;;;8.93;6.77;;;;;;;19.22;79.23;100912.81;5208827;28;20060;-68
2022/08/14 02:50:41;;;;;;;7.70;6.95;;;;;;;19.17;79.79;100909.91;5205534;28;20044;-67
2022/08/14 02:53:12;;;;;;;9.02;6.95;;;;;;;19.17;80.17;100912.56;5207171;28;20397;-68
2022/08/14 02:55:44;;;;;;;8.23;6.53;;;;;;;19.14;79.60;100915.56;5206500;28;20125;-68
2022/08/14 02:58:19;;;;;;;7.63;6.38;;;;;;;19.10;81.32;100916.94;5207704;28;20033;-69
2022/08/14 03:00:50;;;;;;;7.28;6.57;;;;;;;19.04;80.04;100905.22;5207764;28;20396;-67
2022/08/14 03:03:22;;;;;;;11.27;6.97;;;;;;;19.03;81.08;100903.59;5206451;28;20025;-69
2022/08/14 03:05:54;;;;;;;8.43;6.55;;;;;;;19.06;80.15;100895.25;5207064;28;20358;-69
2022/08/14 03:08:30;;;;;;;7.50;6.70;;;;;;;19.09;80.85;100904.66;5205995;28;20080;-68
2022/08/14 03:11:06;;;;;;;7.50;6.75;;;;;;;19.04;80.84;100897.25;5207528;28;20156;-67
2022/08/14 03:13:46;;;;;;;8.93;6.82;;;;;;;19.16;79.63;100892.28;5204080;28;20405;-67
2022/08/14 03:16:23;;;;;;;9.93;6.93;;;;;;;19.06;80.26;100899.75;5207119;28;20033;-68
2022/08/14 03:18:59;;;;;;;8.55;7.18;;;;;;;18.91;82.86;100895.25;5205030;28;20504;-69
2022/08/14 03:21:31;;;;;;;7.68;6.97;;;;;;;18.95;80.72;100898.38;5206406;28;20080;-68
2022/08/14 03:24:08;;;;;;;9.63;6.80;;;;;;;18.98;80.45;100894.50;5207250;28;20029;-68
2022/08/14 03:26:43;;;;;;;8.10;6.72;;;;;;;18.90;81.63;100900.72;5208579;28;20028;-67
2022/08/14 03:29:19;;;;;;;8.55;7.63;;;;;;;18.85;82.71;100895.16;5207209;28;20018;-69
2022/08/14 03:31:50;;;;;;;8.70;7.82;;;;;;;18.71;82.25;100878.22;5205089;28;20026;-67
2022/08/14 03:34:22;;;;;;;12.97;7.50;;;;;;;18.84;81.35;100888.22;5207638;28;20055;-69
2022/08/14 03:36:55;;;;;;;7.85;6.78;;;;;;;18.76;81.69;100877.69;5208231;28;20378;-71
2022/08/14 03:39:27;;;;;;;8.75;6.53;;;;;;;18.70;82.95;100877.38;5208837;28;20073;-70
2022/08/14 03:41:58;;;;;;;10.40;6.73;;;;;;;18.82;81.41;100879.59;5208867;28;20489;-69
2022/08/14 03:44:34;;;;;;;7.63;6.90;;;;;;;18.77;80.70;100874.84;5207735;28;20019;-68
2022/08/14 03:47:05;;;;;;;7.93;7.22;;;;;;;18.67;80.85;100872.41;5204284;28;20124;-69
2022/08/14 03:49:38;;;;;;;8.50;7.57;;;;;;;18.71;81.46;100883.53;5202091;28;20113;-68
2022/08/14 03:52:11;;;;;;;;;;;;;;;19.40;74.61;100884.03;5205027;28;20092;-69
2022/08/14 03:54:43;;;;;;;8.40;7.45;;;;;;;18.65;81.29;100881.59;5208994;28;20567;-67
2022/08/14 03:57:15;;;;;;;8.77;7.82;;;;;;;18.62;81.45;100881.94;5209032;28;20512;-68
2022/08/14 03:59:46;;;;;;;7.03;6.40;;;;;;;18.55;83.20;100879.19;5208807;28;20105;-68
2022/08/14 04:02:18;;;;;;;8.50;7.55;;;;;;;18.52;82.78;100879.53;5209747;28;20022;-70
2022/08/14 04:04:50;;;;;;;8.65;7.32;;;;;;;18.42;84.91;100879.00;5212366;28;20050;-68
2022/08/14 04:07:21;;;;;;;7.87;7.07;;;;;;;18.44;83.16;100883.09;5212750;28;20046;-68
2022/08/14 04:09:52;;;;;;;8.27;6.68;;;;;;;18.35;84.71;100881.53;5211989;28;20886;-71
2022/08/14 04:12:24;;;;;;;8.95;6.85;;;;;;;18.40;84.42;100883.63;5209778;28;20022;-68
2022/08/14 04:14:55;;;;;;;9.45;7.32;;;;;;;18.41;83.03;100872.00;5205496;28;20055;-68
2022/08/14 04:17:28;;;;;;;7.95;7.10;;;;;;;18.35;84.55;100876.22;5209188;28;20056;-69
2022/08/14 04:20:06;;;;;;;9.88;7.30;;;;;;;18.28;86.16;100871.81;5210604;28;20029;-69
2022/08/14 04:22:42;;;;;;;7.72;6.90;;;;;;;18.31;85.64;100871.47;5209925;28;20029;-69
2022/08/14 04:25:13;;;;;;;9.50;7.38;;;;;;;18.26;85.90;100868.50;5209097;28;20393;-68
2022/08/14 04:27:45;;;;;;;8.13;6.75;;;;;;;18.24;86.38;100866.06;5209358;28;20132;-69
2022/08/14 04:30:16;;;;;;;7.95;7.25;;;;;;;18.26;85.41;100869.38;5209416;28;20041;-69
2022/08/14 04:32:47;;;;;;;7.82;7.03;;;;;;;18.25;86.01;100862.38;5209345;28;20113;-70
2022/08/14 04:35:19;;;;;;;8.75;7.70;;;;;;;18.27;86.62;100863.06;5210629;28;20029;-69
2022/08/14 04:43:37;;;;;;;9.23;7.90;;;;;;;18.17;86.70;100850.03;5208713;28;20034;-68
2022/08/14 04:46:11;;;;;;;11.30;9.02;;;;;;;18.32;86.46;100849.25;5208540;28;20034;-69
2022/08/14 04:48:44;;;;;;;10.85;8.70;;;;;;;18.25;85.77;100846.47;5207191;28;20031;-71
2022/08/14 04:51:19;;;;;;;12.33;9.30;;;;;;;18.32;85.49;100841.28;5208600;28;20033;-69
2022/08/14 04:53:50;;;;;;;10.63;8.70;;;;;;;18.29;85.71;100845.09;5210873;28;20029;-69
2022/08/14 04:56:23;;;;;;;9.50;8.50;;;;;;;18.32;86.42;100842.09;5208215;28;20476;-69
2022/08/14 04:59:00;;;;;;;10.98;9.13;;;;;;;18.38;86.79;100841.41;5209782;28;20029;-68
2022/08/14 05:01:31;;;;;;;10.77;8.57;;;;;;;18.34;87.12;100844.59;5211264;28;20022;-68
2022/08/14 05:04:04;;;;;;;8.70;7.55;;;;;;;18.47;84.63;100834.16;5206454;28;20030;-69
2022/08/14 05:06:37;;;;;;;;;;;;;;;19.10;79.30;100832.78;5266716;22;20064;-70
2022/08/14 05:09:08;;;;;;;14.18;7.65;;;;;;;18.57;85.51;100841.88;5253576;28;20003;-69
2022/08/14 05:11:39;;;;;;;7.68;7.00;;;;;;;18.52;86.04;100834.44;5257337;28;20107;-70
2022/08/14 05:14:11;;;;;;;9.52;8.00;;;;;;;18.63;85.00;100838.47;5256813;28;20028;-69
2022/08/14 05:16:43;;;;;;;14.50;8.18;;;;;;;18.61;86.59;100836.00;5239402;28;20029;-69
2022/08/14 05:19:15;;;;;;;8.30;7.15;;;;;;;18.69;86.36;100835.09;5257474;28;20443;-69
2022/08/14 05:21:46;;;;;;;9.30;7.30;;;;;;;18.76;86.61;100828.06;5257136;28;20075;-69
2022/08/14 05:24:17;;;;;;;11.15;7.70;;;;;;;18.78;86.75;100830.53;5255599;28;20063;-69
2022/08/14 05:26:48;;;;;;;8.43;7.63;;;;;;;18.80;87.18;100826.69;5257373;28;20063;-69
2022/08/14 05:29:20;;;;;;;7.65;6.95;;;;;;;18.90;86.68;100823.75;5255693;28;20028;-69
2022/08/14 05:31:55;;;;;;;7.78;7.03;;;;;;;18.99;87.06;100830.63;5256651;28;20742;-69
2022/08/14 05:34:29;;;;;;;7.72;6.93;;;;;;;18.98;87.21;100830.78;5256294;28;20033;-69
2022/08/14 05:37:01;;;;;;;8.27;7.03;;;;;;;19.01;87.49;100836.53;5255321;28;20859;-69
2022/08/14 05:39:32;;;;;;;7.20;6.53;;;;;;;19.18;85.52;100843.31;5256932;28;20025;-69
2022/08/14 05:42:04;;;;;;;7.32;6.60;;;;;;;19.23;85.52;100833.94;5256679;28;20474;-69
2022/08/14 05:44:36;;;;;;;10.63;7.40;;;;;;;19.28;86.80;100839.50;5253522;28;20506;-69
2022/08/14 05:47:07;;;;;;;7.43;6.72;;;;;;;19.45;84.20;100830.31;5256334;28;20028;-69
2022/08/14 05:49:38;;;;;;;10.00;7.03;;;;;;;19.50;84.15;100822.59;5256942;28;20013;-69
2022/08/14 05:52:09;;;;;;;7.53;6.82;;;;;;;19.51;84.73;100821.59;5255089;28;20037;-69
2022/08/14 05:54:41;;;;;;;9.43;6.80;;;;;;;19.65;82.66;100826.03;5256596;28;20032;-70
2022/08/14 05:57:12;;;;;;;8.32;7.07;;;;;;;19.69;81.91;100823.81;5255911;28;20039;-69
2022/08/14 05:59:43;;;;;;;9.80;7.90;;;;;;;19.75;80.85;100828.41;5237095;28;20037;-69
2022/08/14 06:02:14;;;;;;;9.70;6.75;;;;;;;19.87;82.72;100826.84;5236756;28;20029;-69
2022/08/14 06:04:47;;;;;;;7.60;6.88;;;;;;;19.92;82.51;100819.13;5255507;28;20021;-69
2022/08/14 06:07:18;;;;;;;7.70;6.57;;;;;;;20.04;81.65;100823.91;5255203;28;20099;-69
2022/08/14 06:09:49;;;;;;;7.97;7.10;;;;;;;20.08;81.87;100823.34;5255374;28;20119;-68
2022/08/14 06:12:21;;;;;;;7.43;6.57;;;;;;;20.27;79.96;100826.38;5253942;28;20026;-69
2022/08/14 06:14:52;;;;;;;6.75;6.13;;;;;;;20.39;79.80;100824.81;5256053;28;20099;-69
2022/08/14 06:17:24;;;;;;;8.10;7.10;;;;;;;20.53;77.32;100823.91;5256785;28;20028;-69
2022/08/14 06:19:55;;;;;;;9.50;6.93;;;;;;;20.63;77.67;100821.69;5254181;28;20029;-69
2022/08/14 06:22:26;;;;;;;8.45;6.28;;;;;;;20.71;76.64;100820.69;5256443;28;20033;-70
2022/08/14 06:24:57;;;;;;;7.80;6.97;;;;;;;20.94;75.87;100817.72;5256300;28;20021;-70
2022/08/14 06:27:38;;;;;;;7.17;6.37;;;;;;;21.22;74.38;100816.81;5253641;28;20392;-70
2022/08/14 06:30:18;;;;;;;6.70;6.05;;;;;;;21.37;74.01;100804.19;5252954;28;20368;-70
2022/08/14 06:32:50;;;;;;;7.15;6.40;;;;;;;21.59;71.22;100811.00;5252781;28;20040;-70
2022/08/14 06:35:22;;;;;;;8.37;5.90;;;;;;;21.74;70.86;100812.63;5252885;28;20104;-69
2022/08/14 06:37:56;;;;;;;7.20;5.70;;;;;;;21.88;70.58;100813.47;5255625;28;20112;-70
2022/08/14 06:40:31;;;;;;;10.27;6.35;;;;;;;22.02;69.61;100817.78;5254560;28;20068;-70
2022/08/14 06:43:03;;;;;;;8.88;6.20;;;;;;;22.20;66.57;100812.66;5249112;28;20040;-71
2022/08/14 06:45:35;;;;;;;;;;;;;;;22.70;65.69;100801.44;5251966;28;20033;-69
2022/08/14 06:48:22;;;;;;;7.78;5.93;;;;;;;22.58;64.89;100798.63;5251855;28;19913;-70
2022/08/14 06:50:54;;;;;;;5.95;5.28;;;;;;;22.58;64.11;100803.97;5253618;28;20036;-70
2022/08/14 06:53:25;;;;;;;7.57;5.87;;;;;;;22.68;62.49;100806.16;5253096;28;20487;-70
2022/08/14 06:55:57;;;;;;;6.93;6.27;;;;;;;22.80;62.01;100801.81;5252737;28;20072;-69
2022/08/14 06:58:29;;;;;;;7.37;5.63;;;;;;;22.95;62.38;100802.38;5251021;28;20613;-69
2022/08/14 07:06:40;;;;;;;8.25;5.90;;;;;;;23.39;56.44;100798.03;5269280;28;20083;-70
2022/08/14 07:09:12;;;;;;;6.13;5.53;;;;;;;23.58;56.49;100793.59;5275971;28;20514;-70
2022/08/14 07:11:43;;;;;;;7.00;5.93;;;;;;;23.70;57.78;100781.19;5274436;28;20058;-69
2022/08/14 07:14:14;;;;;;;5.90;5.30;;;;;;;23.88;54.64;100793.78;5275742;28;20016;-70
2022/08/14 07:16:46;;;;;;;6.03;4.87;;;;;;;24.06;54.39;100786.84;5273515;28;20082;-70
2022/08/14 07:19:18;;;;;;;7.07;5.67;;;;;;;24.26;54.94;100787.47;5273010;28;20394;-70
2022/08/14 07:21:49;;;;;;;6.43;5.83;;;;;;;24.37;52.07;100786.72;5275334;28;20115;-70
2022/08/14 07:24:20;;;;;;;6.20;4.53;;;;;;;24.54;51.69;100792.34;5275308;28;20033;-70
2022/08/14 07:26:52;;;;;;;6.60;4.73;;;;;;;24.79;52.06;100786.91;5275033;28;20028;-70
2022/08/14 07:29:23;;;;;;;6.87;5.10;;;;;;;24.80;50.34;100795.75;5277643;28;20091;-70
2022/08/14 07:31:55;;;;;;;5.40;4.53;;;;;;;24.89;49.08;100794.38;5276825;28;20513;-71
2022/08/14 07:34:26;;;;;;;9.10;5.80;;;;;;;25.03;49.59;100782.44;5262251;28;20023;-70
2022/08/14 07:36:57;;;;;;;9.40;4.43;;;;;;;25.19;48.91;100786.38;5278761;28;20035;-70
2022/08/14 07:39:29;;;;;;;7.47;4.77;;;;;;;25.27;47.42;100791.44;5279388;28;20063;-70
2022/08/14 07:42:00;;;;;;;6.73;4.90;;;;;;;25.42;47.95;100789.16;5280205;28;20052;-70
2022/08/14 07:44:31;;;;;;;14.17;5.27;;;;;;;25.54;48.60;100780.31;5278454;28;20082;-71
2022/08/14 07:47:03;;;;;;;4.73;4.23;;;;;;;25.76;47.96;100778.72;5277450;28;20032;-71
2022/08/14 07:49:34;;;;;;;5.20;4.70;;;;;;;25.85;46.56;100780.03;5279851;28;20020;-71
2022/08/14 07:52:06;;;;;;;5.53;5.00;;;;;;;26.07;46.19;100782.13;5279192;28;20035;-70
2022/08/14 07:54:39;;;;;;;6.17;4.57;;;;;;;26.25;45.01;100790.03;5279446;28;20032;-70
2022/08/14 07:57:11;;;;;;;5.28;4.78;;;;;;;26.31;44.97;100783.72;5275962;28;20636;-70
2022/08/14 07:59:42;;;;;;;8.67;4.83;;;;;;;26.47;44.72;100784.91;5251146;28;20027;-71
2022/08/14 08:02:16;;;;;;;7.53;4.30;;;;;;;26.62;43.33;100782.53;5275715;28;20115;-70
2022/08/14 08:04:52;;;;;;;8.85;5.13;;;;;;;26.70;43.25;100794.78;5258719;28;20054;-70
2022/08/14 08:07:25;;;;;;;5.43;4.57;;;;;;;26.82;42.72;100792.03;5260906;28;20390;-70
2022/08/14 08:09:58;;;;;;;5.60;4.95;;;;;;;26.92;42.79;100790.38;5278980;28;20017;-70
2022/08/14 08:12:30;;;;;;;5.15;4.65;;;;;;;27.12;43.13;100787.31;5277655;28;20016;-70
2022/08/14 08:15:02;;;;;;;5.97;4.70;;;;;;;27.16;41.45;100783.06;5278409;28;20032;-70
2022/08/14 08:17:36;;;;;;;6.93;5.20;;;;;;;27.49;42.08;100784.16;5278552;28;20027;-72
2022/08/14 08:20:13;;;;;;;5.93;4.70;;;;;;;27.71;41.28;100772.69;5279362;28;20047;-71
2022/08/14 08:22:49;;;;;;;5.43;4.35;;;;;;;27.77;40.90;100769.84;5258496;28;20029;-71
2022/08/14 08:25:22;;;;;;;4.40;4.00;;;;;;;27.86;40.38;100764.84;5279276;28;20489;-71
2022/08/14 08:28:26;;;;;;;5.05;4.13;;;;;;;28.30;40.02;100765.75;5278804;28;20066;-71
2022/08/14 08:31:05;;;;;;;4.82;4.10;;;;;;;28.30;38.91;100754.97;5257628;28;20070;-71
2022/08/14 08:33:37;;;;;;;5.18;4.55;;;;;;;28.35;38.48;100756.91;5276777;28;20025;-71
2022/08/14 08:36:10;;;;;;;5.10;4.20;;;;;;;28.43;37.80;100761.88;5278603;28;20049;-71
2022/08/14 08:38:41;;;;;;;;;;;;;;;29.11;38.24;100770.50;5277521;28;20028;-71
2022/08/14 08:41:12;;;;;;;4.65;4.05;;;;;;;28.86;36.41;100771.81;5274248;28;20279;-71
2022/08/14 08:43:44;;;;;;;5.60;4.20;;;;;;;28.96;36.42;100773.81;5276315;28;20475;-71
2022/08/14 08:46:20;;;;;;;7.53;4.10;;;;;;;29.08;36.87;100765.59;5276318;28;20064;-71
2022/08/14 08:48:58;;;;;;;4.90;4.07;;;;;;;29.13;36.72;100771.03;5256928;28;20024;-71
2022/08/14 08:51:32;;;;;;;5.90;3.92;;;;;;;29.23;36.23;100767.63;5274309;28;20028;-71
2022/08/14 08:54:12;;;;;;;5.15;3.97;;;;;;;29.60;36.31;100766.91;5276281;28;20039;-71
2022/08/14 08:56:51;;;;;;;6.97;4.13;;;;;;;29.66;34.45;100758.56;5276649;28;20061;-71
2022/08/14 08:59:29;;;;;;;6.68;4.55;;;;;;;29.76;34.17;100764.03;5276501;28;20028;-71
2022/08/14 09:02:02;;;;;;;6.97;4.32;;;;;;;29.83;33.38;100761.13;5272505;28;20028;-72
2022/08/14 09:04:40;;;;;;;4.95;4.15;;;;;;;30.01;34.23;100757.19;5274538;28;20035;-73
2022/08/14 09:07:13;;;;;;;7.22;4.32;;;;;;;30.01;32.80;100758.00;5278135;28;20437;-72
2022/08/14 09:09:50;;;;;;;6.50;4.15;;;;;;;30.18;33.96;100751.63;5278713;28;20090;-71
2022/08/14 09:12:21;;;;;;;6.07;4.03;;;;;;;30.15;33.48;100746.69;5270795;28;20467;-72
2022/08/14 09:14:54;;;;;;;5.20;3.87;;;;;;;30.29;32.76;100753.28;5250204;28;20037;-72
2022/08/14 09:17:26;;;;;;;5.70;4.30;;;;;;;30.17;32.32;100744.59;5276322;28;20038;-72
2022/08/14 09:19:58;;;;;;;;;;;;;;;31.11;33.25;100748.16;5260036;28;20483;-71
2022/08/14 09:22:30;;;;;;;4.87;3.33;;;;;;;30.56;31.99;100742.31;5277005;28;19912;-72
2022/08/14 09:25:03;;;;;;;6.00;3.47;;;;;;;30.72;31.50;100741.28;5276975;28;20036;-72
2022/08/14 09:27:36;;;;;;;3.85;3.45;;;;;;;30.97;31.56;100735.13;5275560;28;20105;-72
2022/08/14 09:30:09;;;;;;;5.55;3.60;;;;;;;30.92;29.78;100737.03;5276628;28;20101;-72
2022/08/14 09:33:01;;;;;;;3.45;3.10;;;;;;;31.06;30.51;100738.09;5277051;28;20035;-72
2022/08/14 09:35:44;;;;;;;5.60;3.35;;;;;;;31.24;30.65;100743.00;5276828;28;20069;-72
2022/08/14 09:38:42;;;;;;;4.72;2.70;;;;;;;31.43;29.47;100739.78;5275982;28;20075;-72
2022/08/14 09:41:48;;;;;;;5.55;3.65;;;;;;;31.46;30.03;100718.38;5276893;28;20402;-72
2022/08/14 09:44:43;;;;;;;5.15;3.28;;;;;;;31.76;30.63;100715.91;5275871;28;20030;-73
2022/08/14 09:47:15;;;;;;;5.35;3.65;;;;;;;31.48;30.53;100707.25;5276707;28;20021;-74
2022/08/14 09:49:48;;;;;;;5.63;3.80;;;;;;;31.81;31.29;100708.56;5275784;28;20071;-72
2022/08/14 09:52:22;;;;;;;5.30;3.25;;;;;;;31.77;29.83;100712.09;5275446;28;20103;-72
2022/08/14 09:54:54;;;;;;;5.07;3.00;;;;;;;31.91;29.91;100713.19;5276036;28;20025;-72
2022/08/14 09:57:29;;;;;;;4.87;3.50;;;;;;;32.03;29.92;100710.16;5259389;28;20055;-72
2022/08/14 10:00:09;;;;;;;3.30;3.00;;;;;;;32.18;29.18;100708.19;5275956;28;20028;-73
2022/08/14 10:03:04;;;;;;;4.28;3.25;;;;;;;32.45;29.79;100702.41;5276906;28;20561;-72
2022/08/14 10:05:36;;;;;;;6.40;3.60;;;;;;;32.28;29.28;100703.81;5277061;28;20071;-72
2022/08/14 10:08:20;;;;;;;5.80;3.38;;;;;;;32.61;30.63;100697.69;5275194;28;20491;-72
2022/08/14 10:10:51;;;;;;;5.57;3.55;;;;;;;32.62;29.34;100691.19;5276092;28;20032;-72
2022/08/14 10:13:24;;;;;;;6.17;3.80;;;;;;;32.63;29.79;100698.22;5276533;28;20055;-72
2022/08/14 10:16:01;;;;;;;4.90;3.65;;;;;;;32.76;30.97;100690.53;5276114;28;20296;-72
2022/08/14 10:18:32;;;;;;;6.18;3.70;;;;;;;32.63;30.79;100678.44;5272459;28;20035;-72
2022/08/14 10:21:08;;;;;;;4.33;3.67;;;;;;;32.71;30.02;100680.53;5276624;28;20479;-72
2022/08/14 10:23:44;;;;;;;6.03;4.07;;;;;;;32.63;30.33;100681.97;5275681;28;20087;-72
2022/08/14 10:26:18;;;;;;;5.22;3.80;;;;;;;32.95;29.61;100677.94;5272160;28;20047;-72
2022/08/14 10:28:52;;;;;;;5.03;3.97;;;;;;;32.93;29.34;100682.84;5275374;28;20023;-72
2022/08/14 10:31:28;;;;;;;6.35;4.00;;;;;;;32.91;29.19;100676.88;5276616;28;20033;-72
2022/08/14 10:34:06;;;;;;;5.35;3.60;;;;;;;33.03;29.39;100669.19;5277065;28;20032;-72
2022/08/14 10:36:42;;;;;;;5.80;3.95;;;;;;;33.14;29.21;100654.44;5275758;28;20410;-72
2022/08/14 10:39:22;;;;;;;6.47;3.65;;;;;;;33.35;29.87;100663.22;5276550;28;20425;-72
2022/08/14 10:42:04;;;;;;;6.82;3.88;;;;;;;33.25;29.58;100657.06;5273733;28;20085;-72
2022/08/14 10:44:45;;;;;;;7.80;3.97;;;;;;;33.15;28.73;100655.28;5269988;28;20036;-73
2022/08/14 10:47:17;;;;;;;6.85;3.20;;;;;;;33.48;29.07;100642.72;5275762;28;20048;-72
2022/08/14 10:49:57;;;;;;;7.18;3.80;;;;;;;33.65;29.36;100645.00;5273012;28;20035;-72
2022/08/14 10:52:33;;;;;;;5.28;3.75;;;;;;;33.51;28.26;100653.03;5271197;28;20489;-72
2022/08/14 10:55:10;;;;;;;6.88;4.38;;;;;;;33.50;28.64;100645.97;5275625;28;20035;-73
2022/08/14 10:57:47;;;;;;;5.55;3.85;;;;;;;33.74;28.22;100645.97;5275302;28;20074;-73
2022/08/14 11:00:25;;;;;;;6.05;3.65;;;;;;;33.79;28.38;100634.22;5255366;28;20601;-73
2022/08/14 11:03:00;;;;;;;6.50;4.03;;;;;;;33.94;28.03;100638.66;5275915;28;20040;-73
2022/08/14 11:05:46;;;;;;;7.45;3.75;;;;;;;34.21;28.55;100632.63;5304202;22;20060;-71
2022/08/14 11:08:30;;;;;;;7.50;3.95;;;;;;;34.28;28.14;100646.66;5236645;28;20037;-71
2022/08/14 11:11:04;;;;;;;6.78;3.97;;;;;;;33.91;27.63;100645.50;5257351;28;20017;-72
2022/08/14 11:13:37;;;;;;;4.75;3.53;;;;;;;33.94;25.69;100638.66;5256913;28;20115;-72
2022/08/14 11:16:09;;;;;;;5.90;2.70;;;;;;;34.02;25.52;100641.59;5249352;28;20032;-71
2022/08/14 11:18:47;;;;;;;4.40;2.90;;;;;;;34.08;25.66;100636.88;5245862;28;20534;-72
2022/08/14 11:21:21;;;;;;;3.97;2.65;;;;;;;34.39;25.75;100640.78;5246596;28;20025;-72
2022/08/14 11:23:54;;;;;;;3.90;3.00;;;;;;;34.46;25.09;100626.81;5247115;28;20136;-72
2022/08/14 11:26:28;;;;;;;4.32;3.30;;;;;;;34.53;26.02;100634.63;5247813;28;20024;-72
2022/08/14 11:29:02;;;;;;;5.03;3.60;;;;;;;34.34;25.96;100631.91;5247238;28;20025;-72
2022/08/14 11:31:35;;;;;;;5.40;3.90;;;;;;;34.46;26.54;100623.28;5243514;28;20029;-72
2022/08/14 11:34:07;;;;;;;3.38;3.08;;;;;;;34.65;25.42;100639.63;5246803;28;20033;-72
2022/08/14 11:36:39;;;;;;;;;;;;;;;35.40;25.31;100627.72;5250228;28;20029;-72
2022/08/14 11:39:18;;;;;;;4.10;3.10;;;;;;;34.80;24.40;100629.28;5247061;28;19965;-72
2022/08/14 11:41:50;;;;;;;4.78;3.03;;;;;;;34.52;24.62;100628.38;5247379;28;20021;-71
2022/08/14 11:44:21;;;;;;;;;;;;;;;35.48;23.99;100611.47;5229239;28;20106;-72
2022/08/14 11:46:52;;;;;;;2.90;2.60;;;;;;;34.91;23.75;100605.44;5244383;28;20347;-72
2022/08/14 11:49:30;;;;;;;4.85;3.17;;;;;;;34.87;24.73;100593.53;5242320;28;20029;-72
2022/08/14 11:52:01;;;;;;;5.90;3.13;;;;;;;34.83;25.42;100604.22;5227239;28;20415;-72
2022/08/14 11:54:34;;;;;;;3.47;2.90;;;;;;;34.92;25.08;100595.34;5249107;28;20037;-72
2022/08/14 11:57:13;;;;;;;5.38;3.28;;;;;;;34.83;24.42;100596.03;5247836;28;20025;-72
2022/08/14 11:59:44;;;;;;;4.60;3.40;;;;;;;34.80;25.11;100596.63;5243439;28;20060;-72
2022/08/14 12:02:16;;;;;;;4.38;3.40;;;;;;;34.73;25.42;100587.25;5248057;28;20073;-72
2022/08/14 12:04:52;;;;;;;4.28;3.13;;;;;;;34.76;25.43;100573.03;5247336;28;20030;-72
2022/08/14 12:07:23;;;;;;;6.40;3.45;;;;;;;34.73;24.80;100574.44;5244697;28;20048;-72
2022/08/14 12:09:56;;;;;;;4.45;3.10;;;;;;;34.66;24.67;100575.94;5242485;28;20021;-72
2022/08/14 12:12:31;;;;;;;6.90;3.22;;;;;;;35.06;25.60;100577.97;5242464;28;20479;-72